sensor_id;sensor_type;location;lat;lon;timestamp;pressure;altitude;pressure_sealevel;temperature;humidity
33185;BME280;19550;42.872;25.494;2023-03-01T00:01:37;97086.59;;;5.90;100.00
33185;BME280;19550;42.872;25.494;2023-03-01T00:04:04;97086.84;;;5.83;100.00
33185;BME280;19550;42.872;25.494;2023-03-01T00:06:31;97086.03;;;5.88;100.00
33185;BME280;19550;42.872;25.494;2023-03-01T00:08:57;97096.47;;;5.81;100.00
33185;BME280;19550;42.872;25.494;2023-03-01T00:11:27;97096.75;;;5.84;100.00
33185;BME280;19550;42.872;25.494;2023-03-01T00:13:55;97085.78;;;6.05;100.00
33185;BME280;19550;42.872;25.494;2023-03-01T00:16:24;97094.03;;;5.94;100.00
33185;BME280;19550;42.872;25.494;2023-03-01T00:18:53;97069.53;;;5.93;100.00
33185;BME280;19550;42.872;25.494;2023-03-01T00:21:21;97075.88;;;6.04;100.00
33185;BME280;19550;42.872;25.494;2023-03-01T00:23:48;97071.47;;;5.97;100.00
33185;BME280;19550;42.872;25.494;2023-03-01T00:26:16;97064.84;;;5.98;100.00
33185;BME280;19550;42.872;25.494;2023-03-01T00:28:45;97068.44;;;5.94;100.00
33185;BME280;19550;42.872;25.494;2023-03-01T00:31:15;97066.78;;;5.93;100.00
33185;BME280;19550;42.872;25.494;2023-03-01T00:33:43;97063.78;;;5.89;100.00
33185;BME280;19550;42.872;25.494;2023-03-01T00:36:11;97055.50;;;5.94;100.00
33185;BME280;19550;42.872;25.494;2023-03-01T00:38:41;97054.41;;;6.06;100.00
33185;BME280;19550;42.872;25.494;2023-03-01T00:41:10;97051.66;;;6.01;100.00
33185;BME280;19550;42.872;25.494;2023-03-01T00:43:37;97050.53;;;6.07;100.00
33185;BME280;19550;42.872;25.494;2023-03-01T00:46:07;97052.47;;;6.06;100.00
33185;BME280;19550;42.872;25.494;2023-03-01T00:48:35;97036.53;;;5.98;100.00
33185;BME280;19550;42.872;25.494;2023-03-01T00:51:06;97037.34;;;5.93;100.00
33185;BME280;19550;42.872;25.494;2023-03-01T00:53:34;97039.56;;;5.91;100.00
33185;BME280;19550;42.872;25.494;2023-03-01T00:56:01;97041.50;;;5.91;100.00
33185;BME280;19550;42.872;25.494;2023-03-01T00:58:28;97022.47;;;5.99;100.00
33185;BME280;19550;42.872;25.494;2023-03-01T01:00:55;97020.84;;;5.88;100.00
33185;BME280;19550;42.872;25.494;2023-03-01T01:03:23;97021.34;;;5.85;100.00
33185;BME280;19550;42.872;25.494;2023-03-01T01:05:50;97018.88;;;5.79;100.00
33185;BME280;19550;42.872;25.494;2023-03-01T01:08:17;97015.91;;;5.90;100.00
33185;BME280;19550;42.872;25.494;2023-03-01T01:10:44;97015.03;;;5.80;100.00
33185;BME280;19550;42.872;25.494;2023-03-01T01:13:11;97011.75;;;5.93;100.00
33185;BME280;19550;42.872;25.494;2023-03-01T01:15:38;97014.25;;;6.05;100.00
33185;BME280;19550;42.872;25.494;2023-03-01T01:18:05;97012.59;;;6.04;100.00
33185;BME280;19550;42.872;25.494;2023-03-01T01:20:35;97011.47;;;5.99;100.00
33185;BME280;19550;42.872;25.494;2023-03-01T01:23:02;97022.22;;;5.96;100.00
33185;BME280;19550;42.872;25.494;2023-03-01T01:25:34;97020.84;;;5.88;100.00
33185;BME280;19550;42.872;25.494;2023-03-01T01:28:01;97013.66;;;5.82;100.00
33185;BME280;19550;42.872;25.494;2023-03-01T01:30:28;97026.34;;;5.78;100.00
33185;BME280;19550;42.872;25.494;2023-03-01T01:32:55;97023.28;;;5.70;100.00
33185;BME280;19550;42.872;25.494;2023-03-01T01:35:21;97022.19;;;5.71;100.00
33185;BME280;19550;42.872;25.494;2023-03-01T01:37:49;97025.78;;;5.71;100.00
33185;BME280;19550;42.872;25.494;2023-03-01T01:40:16;97013.94;;;5.60;100.00
33185;BME280;19550;42.872;25.494;2023-03-01T01:42:43;97017.22;;;5.68;100.00
33185;BME280;19550;42.872;25.494;2023-03-01T01:45:32;97025.50;;;5.63;100.00
33185;BME280;19550;42.872;25.494;2023-03-01T01:48:02;97019.44;;;5.60;100.00
33185;BME280;19550;42.872;25.494;2023-03-01T01:50:32;97017.50;;;5.61;100.00
33185;BME280;19550;42.872;25.494;2023-03-01T01:53:09;97018.09;;;5.78;100.00
33185;BME280;19550;42.872;25.494;2023-03-01T01:55:41;97027.69;;;5.86;100.00
33185;BME280;19550;42.872;25.494;2023-03-01T01:58:11;97016.69;;;5.76;100.00
33185;BME280;19550;42.872;25.494;2023-03-01T02:00:39;97014.25;;;6.05;100.00
33185;BME280;19550;42.872;25.494;2023-03-01T02:03:08;97021.13;;;5.97;100.00
33185;BME280;19550;42.872;25.494;2023-03-01T02:05:39;97010.38;;;6.01;100.00
33185;BME280;19550;42.872;25.494;2023-03-01T02:08:12;97004.59;;;6.02;100.00
33185;BME280;19550;42.872;25.494;2023-03-01T02:10:40;97007.91;;;5.99;100.00
33185;BME280;19550;42.872;25.494;2023-03-01T02:13:07;97005.41;;;6.13;100.00
33185;BME280;19550;42.872;25.494;2023-03-01T02:15:36;97001.31;;;6.10;100.00
33185;BME280;19550;42.872;25.494;2023-03-01T02:18:04;96996.63;;;6.01;100.00
33185;BME280;19550;42.872;25.494;2023-03-01T02:20:35;96999.94;;;6.03;100.00
33185;BME280;19550;42.872;25.494;2023-03-01T02:23:05;97001.59;;;6.04;100.00
33185;BME280;19550;42.872;25.494;2023-03-01T02:25:39;96997.72;;;5.99;100.00
33185;BME280;19550;42.872;25.494;2023-03-01T02:30:40;97001.84;;;5.92;100.00
33185;BME280;19550;42.872;25.494;2023-03-01T02:33:28;96995.00;;;5.89;100.00
33185;BME280;19550;42.872;25.494;2023-03-01T02:35:59;96996.88;;;5.99;100.00
33185;BME280;19550;42.872;25.494;2023-03-01T02:38:27;97000.50;;;5.89;100.00
33185;BME280;19550;42.872;25.494;2023-03-01T02:40:56;96995.25;;;5.93;100.00
33185;BME280;19550;42.872;25.494;2023-03-01T02:43:31;97004.84;;;5.85;100.00
33185;BME280;19550;42.872;25.494;2023-03-01T02:46:06;96995.53;;;5.96;100.00
33185;BME280;19550;42.872;25.494;2023-03-01T02:48:40;96995.53;;;5.96;100.00
33185;BME280;19550;42.872;25.494;2023-03-01T02:54:08;96999.66;;;5.84;100.00
33185;BME280;19550;42.872;25.494;2023-03-01T02:56:37;96998.53;;;5.75;100.00
33185;BME280;19550;42.872;25.494;2023-03-01T02:59:04;96995.78;;;5.80;100.00
33185;BME280;19550;42.872;25.494;2023-03-01T03:01:32;96995.50;;;5.86;100.00
33185;BME280;19550;42.872;25.494;2023-03-01T03:04:04;96993.03;;;5.85;100.00
33185;BME280;19550;42.872;25.494;2023-03-01T03:06:31;97001.88;;;5.97;100.00
33185;BME280;19550;42.872;25.494;2023-03-01T03:08:59;96999.09;;;6.02;100.00
33185;BME280;19550;42.872;25.494;2023-03-01T03:11:26;96986.16;;;6.03;100.00
33185;BME280;19550;42.872;25.494;2023-03-01T03:13:53;97000.22;;;5.96;100.00
33185;BME280;19550;42.872;25.494;2023-03-01T03:16:20;96995.50;;;5.86;100.00
33185;BME280;19550;42.872;25.494;2023-03-01T03:18:49;96992.75;;;5.86;100.00
33185;BME280;19550;42.872;25.494;2023-03-01T03:21:16;96993.88;;;5.95;100.00
33185;BME280;19550;42.872;25.494;2023-03-01T03:23:43;96982.88;;;5.95;100.00
33185;BME280;19550;42.872;25.494;2023-03-01T03:26:10;96994.16;;;5.89;100.00
33185;BME280;19550;42.872;25.494;2023-03-01T03:28:39;96996.06;;;5.78;100.00
33185;BME280;19550;42.872;25.494;2023-03-01T03:31:07;96993.84;;;5.85;100.00
33185;BME280;19550;42.872;25.494;2023-03-01T03:33:34;96989.75;;;5.78;100.00
33185;BME280;19550;42.872;25.494;2023-03-01T03:36:03;96993.34;;;5.88;100.00
33185;BME280;19550;42.872;25.494;2023-03-01T03:38:30;96995.25;;;5.88;100.00
33185;BME280;19550;42.872;25.494;2023-03-01T03:41:02;97002.16;;;5.90;100.00
33185;BME280;19550;42.872;25.494;2023-03-01T03:43:31;96999.06;;;5.87;100.00
33185;BME280;19550;42.872;25.494;2023-03-01T03:45:59;96999.91;;;5.82;100.00
33185;BME280;19550;42.872;25.494;2023-03-01T03:48:26;96991.38;;;5.74;100.00
33185;BME280;19550;42.872;25.494;2023-03-01T03:50:54;96991.66;;;5.72;100.00
33185;BME280;19550;42.872;25.494;2023-03-01T03:53:24;96993.59;;;5.72;100.00
33185;BME280;19550;42.872;25.494;2023-03-01T03:55:52;96996.06;;;5.68;100.00
33185;BME280;19550;42.872;25.494;2023-03-01T03:58:20;96992.78;;;5.71;100.00
33185;BME280;19550;42.872;25.494;2023-03-01T04:00:49;97001.03;;;5.71;100.00
33185;BME280;19550;42.872;25.494;2023-03-01T04:03:17;96999.34;;;5.60;100.00
33185;BME280;19550;42.872;25.494;2023-03-01T04:05:45;96993.59;;;5.56;100.00
33185;BME280;19550;42.872;25.494;2023-03-01T04:08:13;96988.63;;;5.58;100.00
33185;BME280;19550;42.872;25.494;2023-03-01T04:10:44;96989.75;;;5.63;100.00
33185;BME280;19550;42.872;25.494;2023-03-01T04:13:12;96990.00;;;5.66;100.00
33185;BME280;19550;42.872;25.494;2023-03-01T04:15:40;96994.13;;;5.69;100.00
33185;BME280;19550;42.872;25.494;2023-03-01T04:18:08;96994.97;;;5.64;100.00
33185;BME280;19550;42.872;25.494;2023-03-01T04:20:36;96992.75;;;5.61;100.00
33185;BME280;19550;42.872;25.494;2023-03-01T04:23:06;96992.50;;;5.63;100.00
33185;BME280;19550;42.872;25.494;2023-03-01T04:25:41;96991.38;;;5.64;100.00
33185;BME280;19550;42.872;25.494;2023-03-01T04:28:09;96999.91;;;5.82;100.00
33185;BME280;19550;42.872;25.494;2023-03-01T04:30:36;96995.78;;;5.65;100.00
33185;BME280;19550;42.872;25.494;2023-03-01T04:33:04;96992.22;;;5.64;100.00
33185;BME280;19550;42.872;25.494;2023-03-01T04:35:32;96997.41;;;5.66;100.00
33185;BME280;19550;42.872;25.494;2023-03-01T04:37:59;96994.69;;;5.55;100.00
33185;BME280;19550;42.872;25.494;2023-03-01T04:40:26;96996.59;;;5.55;100.00
33185;BME280;19550;42.872;25.494;2023-03-01T04:42:54;96997.44;;;5.60;100.00
33185;BME280;19550;42.872;25.494;2023-03-01T04:45:21;96993.84;;;5.60;100.00
33185;BME280;19550;42.872;25.494;2023-03-01T04:47:48;96995.78;;;5.54;100.00
33185;BME280;19550;42.872;25.494;2023-03-01T04:50:18;96992.75;;;5.51;100.00
33185;BME280;19550;42.872;25.494;2023-03-01T04:52:49;96989.16;;;5.45;100.00
33185;BME280;19550;42.872;25.494;2023-03-01T04:55:16;96980.91;;;5.40;100.00
33185;BME280;19550;42.872;25.494;2023-03-01T04:57:43;96976.81;;;5.43;100.00
33185;BME280;19550;42.872;25.494;2023-03-01T05:00:13;96979.03;;;5.51;100.00
33185;BME280;19550;42.872;25.494;2023-03-01T05:02:50;96988.88;;;5.52;100.00
33185;BME280;19550;42.872;25.494;2023-03-01T05:05:23;96993.84;;;5.50;100.00
33185;BME280;19550;42.872;25.494;2023-03-01T05:07:55;96985.34;;;5.51;100.00
33185;BME280;19550;42.872;25.494;2023-03-01T05:10:22;96982.31;;;5.68;100.00
33185;BME280;19550;42.872;25.494;2023-03-01T05:12:50;96974.59;;;5.65;100.00
33185;BME280;19550;42.872;25.494;2023-03-01T05:15:19;96972.94;;;5.79;100.00
33185;BME280;19550;42.872;25.494;2023-03-01T05:17:47;96976.81;;;5.78;100.00
33185;BME280;19550;42.872;25.494;2023-03-01T05:20:14;96980.66;;;5.72;100.00
33185;BME280;19550;42.872;25.494;2023-03-01T05:22:41;96989.47;;;5.69;100.00
33185;BME280;19550;42.872;25.494;2023-03-01T05:25:08;96980.91;;;5.66;100.00
33185;BME280;19550;42.872;25.494;2023-03-01T05:27:35;96980.66;;;5.62;100.00
33185;BME280;19550;42.872;25.494;2023-03-01T05:30:03;96987.81;;;5.63;100.00
33185;BME280;19550;42.872;25.494;2023-03-01T05:32:41;96975.69;;;5.59;100.00
33185;BME280;19550;42.872;25.494;2023-03-01T05:35:10;96983.94;;;5.59;100.00
33185;BME280;19550;42.872;25.494;2023-03-01T05:37:39;96995.78;;;5.54;100.00
33185;BME280;19550;42.872;25.494;2023-03-01T05:40:08;96994.69;;;5.55;100.00
33185;BME280;19550;42.872;25.494;2023-03-01T05:42:42;97002.09;;;5.50;100.00
33185;BME280;19550;42.872;25.494;2023-03-01T05:45:10;97003.75;;;5.51;100.00
33185;BME280;19550;42.872;25.494;2023-03-01T05:47:38;97008.69;;;5.49;100.00
33185;BME280;19550;42.872;25.494;2023-03-01T05:50:11;97004.59;;;5.51;100.00
33185;BME280;19550;42.872;25.494;2023-03-01T05:52:38;96996.88;;;5.64;100.00
33185;BME280;19550;42.872;25.494;2023-03-01T05:55:06;96990.56;;;5.68;100.00
33185;BME280;19550;42.872;25.494;2023-03-01T05:57:33;96999.38;;;5.70;100.00
33185;BME280;19550;42.872;25.494;2023-03-01T06:00:00;97002.66;;;5.67;100.00
33185;BME280;19550;42.872;25.494;2023-03-01T06:02:27;97004.59;;;5.77;100.00
33185;BME280;19550;42.872;25.494;2023-03-01T06:04:54;96995.78;;;5.65;100.00
33185;BME280;19550;42.872;25.494;2023-03-01T06:07:23;96997.69;;;5.79;100.00
33185;BME280;19550;42.872;25.494;2023-03-01T06:09:49;96998.00;;;5.78;100.00
33185;BME280;19550;42.872;25.494;2023-03-01T06:12:16;97002.94;;;5.76;100.00
33185;BME280;19550;42.872;25.494;2023-03-01T06:14:45;97004.31;;;5.73;100.00
33185;BME280;19550;42.872;25.494;2023-03-01T06:17:11;96995.50;;;5.76;100.00
33185;BME280;19550;42.872;25.494;2023-03-01T06:19:38;97004.31;;;5.78;100.00
33185;BME280;19550;42.872;25.494;2023-03-01T06:22:05;97006.50;;;5.66;100.00
33185;BME280;19550;42.872;25.494;2023-03-01T06:24:33;97003.78;;;5.76;100.00
33185;BME280;19550;42.872;25.494;2023-03-01T06:27:00;97006.22;;;5.73;100.00
33185;BME280;19550;42.872;25.494;2023-03-01T06:29:27;97014.47;;;5.68;100.00
33185;BME280;19550;42.872;25.494;2023-03-01T06:31:54;97012.84;;;5.77;100.00
33185;BME280;19550;42.872;25.494;2023-03-01T06:34:20;97003.22;;;5.74;100.00
33185;BME280;19550;42.872;25.494;2023-03-01T06:36:47;97015.03;;;5.75;100.00
33185;BME280;19550;42.872;25.494;2023-03-01T06:39:14;97012.00;;;5.81;100.00
33185;BME280;19550;42.872;25.494;2023-03-01T06:41:44;97014.75;;;5.81;100.00
33185;BME280;19550;42.872;25.494;2023-03-01T06:44:11;97008.72;;;5.84;100.00
33185;BME280;19550;42.872;25.494;2023-03-01T06:46:38;97009.31;;;5.91;100.00
33185;BME280;19550;42.872;25.494;2023-03-01T06:49:05;97011.75;;;5.88;100.00
33185;BME280;19550;42.872;25.494;2023-03-01T06:51:35;97005.16;;;5.84;100.00
33185;BME280;19550;42.872;25.494;2023-03-01T06:54:02;97008.75;;;5.89;100.00
33185;BME280;19550;42.872;25.494;2023-03-01T06:56:29;97010.66;;;5.94;100.00
33185;BME280;19550;42.872;25.494;2023-03-01T06:58:57;97007.09;;;5.93;100.00
33185;BME280;19550;42.872;25.494;2023-03-01T07:01:24;97010.66;;;5.89;100.00
33185;BME280;19550;42.872;25.494;2023-03-01T07:03:50;97002.13;;;5.95;100.00
33185;BME280;19550;42.872;25.494;2023-03-01T07:06:17;97006.00;;;5.89;100.00
33185;BME280;19550;42.872;25.494;2023-03-01T07:08:44;97001.88;;;5.97;100.00
33185;BME280;19550;42.872;25.494;2023-03-01T07:11:11;97004.34;;;5.88;100.00
33185;BME280;19550;42.872;25.494;2023-03-01T07:13:38;97013.69;;;5.87;100.00
33185;BME280;19550;42.872;25.494;2023-03-01T07:16:07;97009.84;;;5.93;100.00
33185;BME280;19550;42.872;25.494;2023-03-01T07:18:34;97011.78;;;5.98;100.00
33185;BME280;19550;42.872;25.494;2023-03-01T07:21:04;97009.25;;;5.86;100.00
33185;BME280;19550;42.872;25.494;2023-03-01T07:23:31;97007.34;;;5.92;100.00
33185;BME280;19550;42.872;25.494;2023-03-01T07:25:58;97013.97;;;5.91;100.00
33185;BME280;19550;42.872;25.494;2023-03-01T07:28:26;97005.97;;;5.94;100.00
33185;BME280;19550;42.872;25.494;2023-03-01T07:30:53;97004.31;;;5.83;100.00
33185;BME280;19550;42.872;25.494;2023-03-01T07:33:21;97003.53;;;5.98;100.00
33185;BME280;19550;42.872;25.494;2023-03-01T07:35:48;97008.16;;;6.08;100.00
33185;BME280;19550;42.872;25.494;2023-03-01T07:38:15;97012.00;;;6.12;100.00
33185;BME280;19550;42.872;25.494;2023-03-01T07:40:41;97015.06;;;6.10;100.00
33185;BME280;19550;42.872;25.494;2023-03-01T07:43:08;97023.31;;;6.00;100.00
33185;BME280;19550;42.872;25.494;2023-03-01T07:45:35;97016.44;;;5.97;100.00
33185;BME280;19550;42.872;25.494;2023-03-01T07:48:02;97017.53;;;6.02;100.00
33185;BME280;19550;42.872;25.494;2023-03-01T07:50:30;97010.94;;;5.92;100.00
33185;BME280;19550;42.872;25.494;2023-03-01T07:52:57;97014.25;;;5.94;100.00
33185;BME280;19550;42.872;25.494;2023-03-01T07:55:24;97012.88;;;6.02;100.00
33185;BME280;19550;42.872;25.494;2023-03-01T07:57:51;97016.44;;;5.92;100.00
33185;BME280;19550;42.872;25.494;2023-03-01T08:00:18;97024.16;;;5.95;100.00
33185;BME280;19550;42.872;25.494;2023-03-01T08:02:45;97016.16;;;5.99;100.00
33185;BME280;19550;42.872;25.494;2023-03-01T08:05:12;97024.97;;;6.01;100.00
33185;BME280;19550;42.872;25.494;2023-03-01T08:07:40;97021.97;;;5.97;100.00
33185;BME280;19550;42.872;25.494;2023-03-01T08:10:08;97020.00;;;5.93;100.00
33185;BME280;19550;42.872;25.494;2023-03-01T08:12:35;97025.78;;;6.02;100.00
33185;BME280;19550;42.872;25.494;2023-03-01T08:15:02;97013.69;;;6.03;100.00
33185;BME280;19550;42.872;25.494;2023-03-01T08:17:29;97007.63;;;6.16;100.00
33185;BME280;19550;42.872;25.494;2023-03-01T08:19:56;97011.19;;;6.06;100.00
33185;BME280;19550;42.872;25.494;2023-03-01T08:22:23;97000.50;;;6.05;100.00
33185;BME280;19550;42.872;25.494;2023-03-01T08:24:51;97003.25;;;6.05;100.00
33185;BME280;19550;42.872;25.494;2023-03-01T08:27:18;97000.19;;;6.16;100.00
33185;BME280;19550;42.872;25.494;2023-03-01T08:29:45;97002.94;;;6.16;100.00
33185;BME280;19550;42.872;25.494;2023-03-01T08:32:12;97007.59;;;6.21;100.00
33185;BME280;19550;42.872;25.494;2023-03-01T08:34:38;97002.91;;;6.26;100.00
33185;BME280;19550;42.872;25.494;2023-03-01T08:37:05;97000.72;;;6.23;100.00
33185;BME280;19550;42.872;25.494;2023-03-01T08:39:32;96998.53;;;6.20;100.00
33185;BME280;19550;42.872;25.494;2023-03-01T08:42:00;97003.75;;;6.27;100.00
33185;BME280;19550;42.872;25.494;2023-03-01T08:44:27;96999.88;;;6.33;100.00
33185;BME280;19550;42.872;25.494;2023-03-01T08:46:54;96992.72;;;6.27;100.00
33185;BME280;19550;42.872;25.494;2023-03-01T08:49:21;97006.22;;;6.28;100.00
33185;BME280;19550;42.872;25.494;2023-03-01T08:51:48;96998.50;;;6.35;100.00
33185;BME280;19550;42.872;25.494;2023-03-01T08:54:16;97008.13;;;6.33;100.00
33185;BME280;19550;42.872;25.494;2023-03-01T08:56:44;97009.22;;;6.37;100.00
33185;BME280;19550;42.872;25.494;2023-03-01T08:59:13;97013.06;;;6.51;100.00
33185;BME280;19550;42.872;25.494;2023-03-01T09:01:41;97020.19;;;6.52;100.00
33185;BME280;19550;42.872;25.494;2023-03-01T09:04:09;97017.47;;;6.47;100.00
33185;BME280;19550;42.872;25.494;2023-03-01T09:06:36;97017.22;;;6.44;100.00
33185;BME280;19550;42.872;25.494;2023-03-01T09:09:04;97019.13;;;6.48;100.00
33185;BME280;19550;42.872;25.494;2023-03-01T09:11:31;97019.97;;;6.44;100.00
33185;BME280;19550;42.872;25.494;2023-03-01T09:13:58;97021.88;;;6.43;100.00
33185;BME280;19550;42.872;25.494;2023-03-01T09:16:26;97022.44;;;6.40;100.00
33185;BME280;19550;42.872;25.494;2023-03-01T09:18:55;97025.75;;;6.42;100.00
33185;BME280;19550;42.872;25.494;2023-03-01T09:21:23;97017.22;;;6.44;100.00
33185;BME280;19550;42.872;25.494;2023-03-01T09:23:50;97007.56;;;6.41;100.00
33185;BME280;19550;42.872;25.494;2023-03-01T09:26:19;97008.66;;;6.50;100.00
33185;BME280;19550;42.872;25.494;2023-03-01T09:28:47;97014.13;;;6.55;100.00
33185;BME280;19550;42.872;25.494;2023-03-01T09:31:15;97011.38;;;6.55;100.00
33185;BME280;19550;42.872;25.494;2023-03-01T09:33:45;97015.75;;;6.66;100.00
33185;BME280;19550;42.872;25.494;2023-03-01T09:36:14;97011.88;;;6.67;100.00
33185;BME280;19550;42.872;25.494;2023-03-01T09:38:41;97003.41;;;6.49;100.00
33185;BME280;19550;42.872;25.494;2023-03-01T09:41:23;97010.53;;;6.60;100.00
33185;BME280;19550;42.872;25.494;2023-03-01T09:43:56;96999.25;;;6.61;100.00
33185;BME280;19550;42.872;25.494;2023-03-01T09:46:25;97001.50;;;6.49;100.00
33185;BME280;19550;42.872;25.494;2023-03-01T09:48:56;96999.84;;;6.48;100.00
33185;BME280;19550;42.872;25.494;2023-03-01T09:51:28;96997.94;;;6.44;100.00
33185;BME280;19550;42.872;25.494;2023-03-01T09:53:56;96994.06;;;6.50;100.00
33185;BME280;19550;42.872;25.494;2023-03-01T09:56:27;96992.38;;;6.54;100.00
33185;BME280;19550;42.872;25.494;2023-03-01T09:59:00;97003.38;;;6.59;100.00
33185;BME280;19550;42.872;25.494;2023-03-01T10:01:35;96984.91;;;6.64;100.00
33185;BME280;19550;42.872;25.494;2023-03-01T10:04:16;96988.78;;;6.58;100.00
33185;BME280;19550;42.872;25.494;2023-03-01T10:06:58;96980.22;;;6.70;100.00
33185;BME280;19550;42.872;25.494;2023-03-01T10:09:32;96974.16;;;6.68;100.00
33185;BME280;19550;42.872;25.494;2023-03-01T10:12:00;96983.50;;;6.72;100.00
33185;BME280;19550;42.872;25.494;2023-03-01T10:14:33;96989.88;;;6.62;100.00
33185;BME280;19550;42.872;25.494;2023-03-01T10:17:03;96981.59;;;6.67;100.00
33185;BME280;19550;42.872;25.494;2023-03-01T10:19:37;96976.34;;;6.66;100.00
33185;BME280;19550;42.872;25.494;2023-03-01T10:22:11;96981.56;;;6.77;100.00
33185;BME280;19550;42.872;25.494;2023-03-01T10:24:40;96980.75;;;6.77;100.00
33185;BME280;19550;42.872;25.494;2023-03-01T10:27:11;96978.00;;;6.67;100.00
33185;BME280;19550;42.872;25.494;2023-03-01T10:29:47;96972.75;;;6.75;100.00
33185;BME280;19550;42.872;25.494;2023-03-01T10:32:16;96974.72;;;6.70;100.00
33185;BME280;19550;42.872;25.494;2023-03-01T10:34:45;96965.31;;;6.76;100.00
33185;BME280;19550;42.872;25.494;2023-03-01T10:37:14;96973.81;;;6.79;100.00
33185;BME280;19550;42.872;25.494;2023-03-01T10:40:05;96962.31;;;6.67;100.00
33185;BME280;19550;42.872;25.494;2023-03-01T10:42:35;96956.25;;;6.70;100.00
33185;BME280;19550;42.872;25.494;2023-03-01T10:48:08;96956.75;;;6.83;100.00
33185;BME280;19550;42.872;25.494;2023-03-01T10:50:40;96952.28;;;6.87;100.00
33185;BME280;19550;42.872;25.494;2023-03-01T10:53:23;96948.72;;;6.91;100.00
33185;BME280;19550;42.872;25.494;2023-03-01T10:56:00;96945.69;;;6.88;100.00
33185;BME280;19550;42.872;25.494;2023-03-01T10:58:27;96947.88;;;6.86;100.00
33185;BME280;19550;42.872;25.494;2023-03-01T11:00:56;96949.19;;;6.98;100.00
33185;BME280;19550;42.872;25.494;2023-03-01T11:03:24;96949.75;;;7.00;100.00
33185;BME280;19550;42.872;25.494;2023-03-01T11:05:59;96942.84;;;7.03;100.00
33185;BME280;19550;42.872;25.494;2023-03-01T11:08:38;96943.41;;;7.00;100.00
33185;BME280;19550;42.872;25.494;2023-03-01T11:11:22;96939.31;;;6.92;100.00
33185;BME280;19550;42.872;25.494;2023-03-01T11:13:55;96936.81;;;6.96;100.00
33185;BME280;19550;42.872;25.494;2023-03-01T11:16:25;96924.38;;;7.03;100.00
33185;BME280;19550;42.872;25.494;2023-03-01T11:19:01;96918.59;;;7.00;100.00
33185;BME280;19550;42.872;25.494;2023-03-01T11:21:32;96930.50;;;6.95;100.00
33185;BME280;19550;42.872;25.494;2023-03-01T11:24:01;96926.59;;;7.01;100.00
33185;BME280;19550;42.872;25.494;2023-03-01T11:26:31;96930.53;;;6.90;100.00
33185;BME280;19550;42.872;25.494;2023-03-01T11:29:04;96922.84;;;6.82;100.00
33185;BME280;19550;42.872;25.494;2023-03-01T11:31:33;96925.91;;;6.75;100.00
33185;BME280;19550;42.872;25.494;2023-03-01T11:34:05;96910.25;;;6.71;100.00
33185;BME280;19550;42.872;25.494;2023-03-01T11:36:41;96914.03;;;6.80;100.00
33185;BME280;19550;42.872;25.494;2023-03-01T11:39:18;96900.75;;;6.87;100.00
33185;BME280;19550;42.872;25.494;2023-03-01T11:41:51;96900.22;;;6.85;100.00
33185;BME280;19550;42.872;25.494;2023-03-01T11:44:23;96903.03;;;6.75;100.00
33185;BME280;19550;42.872;25.494;2023-03-01T11:47:08;96897.00;;;6.73;100.00
33185;BME280;19550;42.872;25.494;2023-03-01T11:50:07;96903.09;;;6.70;100.00
33185;BME280;19550;42.872;25.494;2023-03-01T11:52:46;96907.19;;;6.77;100.00
33185;BME280;19550;42.872;25.494;2023-03-01T11:55:28;96897.69;;;6.94;100.00
33185;BME280;19550;42.872;25.494;2023-03-01T11:58:14;96900.25;;;6.80;100.00
33185;BME280;19550;42.872;25.494;2023-03-01T12:00:55;96890.34;;;6.79;100.00
33185;BME280;19550;42.872;25.494;2023-03-01T12:03:56;96889.00;;;6.71;100.00
33185;BME280;19550;42.872;25.494;2023-03-01T12:06:35;96882.38;;;6.72;100.00
33185;BME280;19550;42.872;25.494;2023-03-01T12:09:20;96882.38;;;6.72;100.00
33185;BME280;19550;42.872;25.494;2023-03-01T12:12:04;96890.97;;;6.66;100.00
33185;BME280;19550;42.872;25.494;2023-03-01T12:14:48;96879.13;;;6.70;100.00
33185;BME280;19550;42.872;25.494;2023-03-01T12:17:31;96877.66;;;6.83;100.00
33185;BME280;19550;42.872;25.494;2023-03-01T12:20:14;96879.31;;;6.84;100.00
33185;BME280;19550;42.872;25.494;2023-03-01T12:22:51;96888.66;;;6.88;100.00
33185;BME280;19550;42.872;25.494;2023-03-01T12:25:29;96877.38;;;6.79;100.00
33185;BME280;19550;42.872;25.494;2023-03-01T12:28:29;96880.13;;;6.85;100.00
33185;BME280;19550;42.872;25.494;2023-03-01T12:33:58;96879.63;;;6.77;100.00
33185;BME280;19550;42.872;25.494;2023-03-01T12:36:39;96861.97;;;6.78;100.00
33185;BME280;19550;42.872;25.494;2023-03-01T12:39:13;96865.50;;;6.89;100.00
33185;BME280;19550;42.872;25.494;2023-03-01T12:41:48;96869.66;;;6.82;100.00
33185;BME280;19550;42.872;25.494;2023-03-01T12:44:32;96863.63;;;6.79;100.00
33185;BME280;19550;42.872;25.494;2023-03-01T12:47:26;96876.28;;;6.81;100.00
33185;BME280;19550;42.872;25.494;2023-03-01T12:50:01;96877.19;;;6.71;100.00
33185;BME280;19550;42.872;25.494;2023-03-01T12:52:35;96867.50;;;6.73;100.00
33185;BME280;19550;42.872;25.494;2023-03-01T12:55:16;96873.03;;;6.73;100.00
33185;BME280;19550;42.872;25.494;2023-03-01T12:57:51;96866.13;;;6.76;100.00
33185;BME280;19550;42.872;25.494;2023-03-01T13:00:27;96858.94;;;6.80;100.00
33185;BME280;19550;42.872;25.494;2023-03-01T13:03:00;96862.47;;;6.86;100.00
33185;BME280;19550;42.872;25.494;2023-03-01T13:05:39;96857.78;;;6.86;100.00
33185;BME280;19550;42.872;25.494;2023-03-01T13:08:15;96855.81;;;6.97;100.00
33185;BME280;19550;42.872;25.494;2023-03-01T13:10:49;96857.97;;;7.00;100.00
33185;BME280;19550;42.872;25.494;2023-03-01T13:13:21;96865.22;;;6.91;100.00
33185;BME280;19550;42.872;25.494;2023-03-01T13:15:49;96858.06;;;6.90;100.00
33185;BME280;19550;42.872;25.494;2023-03-01T13:18:32;96869.06;;;6.90;100.00